Tara Lynn II — WDG5016 — position and weather

sailwx.info

Track history (hours):
 
Tides and Currents Weather Stations Pressure Air Temp Water Temp Dewpoint Dewpoint Depression Visibility Wind Speed Wind Dir Waves Ship Positions

Tara Lynn II

Owner: Osier Seafood, Inc., So. Bristol, ME. More information available from US FCC via Universal Licensing System and Coast Guard Vessel Documentation Center.

Last reported at 2017-Oct-23 04:20 UTC. Time now 2017-Nov-23 11:19 UTC.
Position N 42°53' W 069°49'.
Warning: this ship's position is 31 days out of date.

Length 17 m.

Type: Fishing. MMSI: 367530120.

Date/timePositionNaut miles runAvg speedWind from/ knotsBaromVisibWave heightAir tempDewpointWater temp
2017-Oct-23 04:20N 42°53' W 069°49'6 2.6
2017-Oct-23 01:52N 42°49' W 069°44'5 2.6
2017-Oct-22 23:54N 42°46' W 069°38'0 1.0
2017-Oct-22 23:29N 42°46' W 069°38'5 2.6
2017-Oct-22 21:39N 42°47' W 069°44'1 2.6
2017-Oct-22 21:20N 42°48' W 069°45'10 2.0
2017-Oct-22 16:07N 42°57' W 069°52'1 2.6
2017-Oct-22 15:36N 42°56' W 069°51'1 2.6
2017-Oct-22 15:24N 42°55' W 069°51'1 2.6
2017-Oct-22 15:00N 42°54' W 069°50'1 2.6
2017-Oct-22 14:30N 42°53' W 069°49'1 2.7
2017-Oct-22 14:00N 42°53' W 069°47'1 2.7
2017-Oct-22 13:30N 42°52' W 069°46'1 2.7
2017-Oct-22 12:59N 42°51' W 069°44'1 2.7
2017-Oct-22 12:30N 42°50' W 069°44'  
Track history (hours):
 
Tides and Currents Weather Stations Pressure Air Temp Water Temp Dewpoint Dewpoint Depression Visibility Wind Speed Wind Dir Waves Ship Positions

Tara Lynn II

Owner: Osier Seafood, Inc., So. Bristol, ME. More information available from US FCC via Universal Licensing System and Coast Guard Vessel Documentation Center.

Last reported at 2017-Oct-23 04:20 UTC. Time now 2017-Nov-23 11:19 UTC.
Position N 42°53' W 069°49'.
Warning: this ship's position is 31 days out of date.

Length 17 m.

Type: Fishing. MMSI: 367530120.

Date/timePositionNaut miles runAvg speedWind from/ knotsBaromVisibWave heightAir tempDewpointWater temp
2017-Oct-23 04:20N 42°53' W 069°49'6 2.6
2017-Oct-23 01:52N 42°49' W 069°44'5 2.6
2017-Oct-22 23:54N 42°46' W 069°38'0 1.0
2017-Oct-22 23:29N 42°46' W 069°38'5 2.6
2017-Oct-22 21:39N 42°47' W 069°44'1 2.6
2017-Oct-22 21:20N 42°48' W 069°45'10 2.0
2017-Oct-22 16:07N 42°57' W 069°52'1 2.6
2017-Oct-22 15:36N 42°56' W 069°51'1 2.6
2017-Oct-22 15:24N 42°55' W 069°51'1 2.6
2017-Oct-22 15:00N 42°54' W 069°50'1 2.6
2017-Oct-22 14:30N 42°53' W 069°49'1 2.7
2017-Oct-22 14:00N 42°53' W 069°47'1 2.7
2017-Oct-22 13:30N 42°52' W 069°46'1 2.7
2017-Oct-22 12:59N 42°51' W 069°44'1 2.7
2017-Oct-22 12:30N 42°50' W 069°44'  

Dump ship's entire track history